NY21 weather

Dewitt Heliport
Webster, New York, United States

Public forecast

Using degrees Fahrenheit for public forecast. Weather courtesy of forecast.io.

Closest aviation weather report (METAR) to Dewitt Heliport

Closest report is Greater Rochester International Airport, 8.3 nm (15.3 km) SW. Retrieved 2019/12/06 09:54 UTC (14 minutes ago):

KROC 060954Z 17005KT 9SM -SN FEW040 OVC070 M01/M04 A3000 RMK AO2 SLP167 P0000 T10061044

Closest aviation forecast (TAF) to Dewitt Heliport

Closest forecast is Greater Rochester International Airport, 8.3 nm (15.3 km) SW. Retrieved 2019/12/06 06:22 UTC (4 hours ago):

TAF KROC 060520Z 0606/0706 25005KT P6SM OVC035 FM060900 VRB04KT P6SM OVC070 FM061200 17005KT 2SM -SN OVC025 FM061400 22008KT 3/4SM -SN OVC015 FM061700 32010KT 4SM -SHSN OVC015 FM062000 32012KT P6SM VCSH BKN025 FM070100 28010KT P6SM VCSH BKN025